Hauptseite
METAR-TAF:

METAR-TAF

Flughäfen :

Wellsville Municipal Airport (Tarantine Field)

Wellsville, New York, Vereinigte Staaten

Breite: 42-06-27N, Länge: 077-59-04W, Höhe: 647 m

Beobachtung

Neuester Wetterbericht von vor 31 Minuten, um 09:56 UTC
Wind 3 kt aus unterschiedlichen Richtungen
Temperatur 18°C
Luftfeuchtigkeit 83%
Luftdruck 1023 hPa
Sichtweite: 16.1 km
Himmel klar

METAR: KELZ 270956Z AUTO VRB03KT 10SM CLR 18/15 A3021 RMK AO2 SLP216 T01780150

Zeit: 06:27 (10:27 UTC)


TAF: fehlend

Wetterbeobachtungen und Prognosen von mehr als 4000 Flughäfen (METAR und TAF Bericht).

Die verfügbaren Stationen werden durch gelbe und rote Markierungen auf der Karte dargestellt.

Führen Sie die Maus auf sie, um den Namen der Station zu sehen.

Darauf klicken, um die Beobachtung von Wetterbeobachtungen und Prognosen zu sehen.

Um die Karte zu ändern : klicken Sie auf den grünen Tasten mit einem schwarzen Kreuz Zum Vergrößern, auf den grünen Button mit einem Gedankenstrich zu verkleinern, oder auf die grünen Pfeile für benachbarte Karten.


METAR-TAF: